Time,TemperatureF,DewpointF,PressureIn,WindDirection,WindDirectionDegrees,WindSpeedMPH,WindSpeedGustMPH,Humidity,HourlyPrecipIn,Conditions,Clouds,dailyrainin,SolarRadiationWatts/m^2,SoftwareType,DateUTC
2013-07-25 00:12:00,73.0,60.0,29.90,East,85,0.0,1.0,64,0.00,,,0.00,0.000000,,2013-07-25 04:12:00,
2013-07-25 00:53:00,72.0,58.0,29.91,East,79,0.0,1.0,62,0.00,,,0.00,0.000000,,2013-07-25 04:53:00,
2013-07-25 01:02:00,72.0,59.0,29.91,ENE,59,0.0,0.0,63,0.00,,,0.00,0.000000,,2013-07-25 05:02:00,
2013-07-25 01:43:00,71.0,59.0,29.91,NE,56,0.0,5.0,65,0.00,,,0.00,0.000000,,2013-07-25 05:43:00,
2013-07-25 01:52:00,71.0,59.0,29.91,NNE,33,0.0,6.0,65,0.00,,,0.00,0.000000,,2013-07-25 05:52:00,
2013-07-25 02:32:00,70.0,58.0,29.91,ENE,68,0.0,6.0,65,0.00,,,0.00,0.000000,,2013-07-25 06:32:00,
2013-07-25 02:52:00,69.0,57.0,29.91,East,82,1.0,12.0,65,0.00,,,0.00,0.000000,,2013-07-25 06:52:00,
2013-07-25 03:02:00,69.0,57.0,29.91,ENE,64,1.0,11.0,65,0.00,,,0.00,0.000000,,2013-07-25 07:02:00,
2013-07-25 03:12:00,69.0,56.0,29.91,NE,42,4.0,10.0,64,0.00,,,0.00,0.000000,,2013-07-25 07:12:00,
2013-07-25 03:33:00,68.0,55.0,29.91,ENE,73,0.0,11.0,64,0.00,,,0.00,0.000000,,2013-07-25 07:33:00,
2013-07-25 03:43:00,68.0,55.0,29.91,ENE,71,0.0,6.0,64,0.00,,,0.00,0.000000,,2013-07-25 07:43:00,
2013-07-25 03:53:00,68.0,55.0,29.91,NNE,30,2.0,11.0,63,0.00,,,0.00,0.000000,,2013-07-25 07:53:00,
2013-07-25 04:02:00,68.0,55.0,29.91,East,82,0.0,11.0,63,0.00,,,0.00,0.000000,,2013-07-25 08:02:00,
2013-07-25 04:44:00,67.0,54.0,29.93,ENE,59,0.0,6.0,63,0.00,,,0.00,0.000000,,2013-07-25 08:44:00,
2013-07-25 05:02:00,66.0,53.0,29.93,ENE,67,0.0,3.0,64,0.00,,,0.00,0.000000,,2013-07-25 09:02:00,
2013-07-25 05:12:00,66.0,53.0,29.93,NE,49,0.0,0.0,64,0.00,,,0.00,0.000000,,2013-07-25 09:12:00,
2013-07-25 05:22:00,66.0,53.0,29.93,NE,40,0.0,3.0,64,0.00,,,0.00,0.000000,,2013-07-25 09:22:00,
2013-07-25 05:43:00,66.0,53.0,29.93,ENE,59,0.0,2.0,64,0.00,,,0.00,0.000000,,2013-07-25 09:43:00,
2013-07-25 05:52:00,65.0,53.0,29.93,ENE,74,0.0,6.0,65,0.00,,,0.00,0.000000,,2013-07-25 09:52:00,
2013-07-25 06:03:00,65.0,53.0,29.94,ENE,76,0.0,0.0,66,0.00,,,0.00,0.000000,,2013-07-25 10:03:00,
2013-07-25 06:12:00,65.0,53.0,29.93,East,92,0.0,0.0,66,0.00,,,0.00,0.000000,,2013-07-25 10:12:00,
2013-07-25 06:53:00,64.0,53.0,29.95,ENE,74,0.0,0.0,68,0.00,,,0.00,5.000000,,2013-07-25 10:53:00,
2013-07-25 07:02:00,64.0,53.0,29.95,ENE,76,0.0,0.0,68,0.00,,,0.00,7.000000,,2013-07-25 11:02:00,
2013-07-25 07:43:00,64.0,55.0,29.96,North,360,0.0,0.0,72,0.00,,,0.00,40.000000,,2013-07-25 11:43:00,
2013-07-25 08:32:00,63.0,55.0,29.96,East,86,0.0,0.0,74,0.00,,,0.00,51.000000,,2013-07-25 12:32:00,
2013-07-25 08:45:00,63.0,55.0,29.96,ENE,75,0.0,0.0,75,0.00,,,0.00,84.000000,,2013-07-25 12:45:00,
2013-07-25 08:53:00,63.0,55.0,29.97,ENE,74,0.0,0.0,74,0.00,,,0.00,105.000000,,2013-07-25 12:53:00,
2013-07-25 09:03:00,63.0,55.0,29.97,NE,54,0.0,1.0,75,0.00,,,0.00,123.000000,,2013-07-25 13:03:00,
2013-07-25 10:02:00,64.0,56.0,29.98,NW,312,0.0,1.0,74,0.00,,,0.00,172.000000,,2013-07-25 14:02:00,
2013-07-25 10:33:00,65.0,56.0,29.98,North,355,0.0,0.0,72,0.00,,,0.00,123.000000,,2013-07-25 14:33:00,
2013-07-25 10:43:00,66.0,57.0,29.99,East,86,0.0,0.0,72,0.00,,,0.00,102.000000,,2013-07-25 14:43:00,
2013-07-25 11:12:00,69.0,58.0,29.99,ENE,57,0.0,1.0,69,0.00,,,0.00,137.000000,,2013-07-25 15:12:00,
2013-07-25 12:45:00,74.0,59.0,29.99,NW,321,0.0,8.0,59,0.00,,,0.00,867.000000,,2013-07-25 16:45:00,
2013-07-25 12:53:00,75.0,61.0,29.98,ENE,68,1.0,8.0,61,0.00,,,0.00,863.000000,,2013-07-25 16:53:00,
2013-07-25 13:43:00,77.0,59.0,29.99,NNW,334,0.0,4.0,54,0.00,,,0.00,895.000000,,2013-07-25 17:43:00,
2013-07-25 13:53:00,77.0,61.0,29.98,NNW,331,0.0,4.0,57,0.00,,,0.00,893.000000,,2013-07-25 17:53:00,
2013-07-25 14:02:00,76.0,60.0,29.98,NW,321,4.0,8.0,57,0.00,,,0.00,770.000000,,2013-07-25 18:02:00,
2013-07-25 14:33:00,79.0,62.0,29.97,NW,313,1.0,5.0,56,0.00,,,0.00,865.000000,,2013-07-25 18:33:00,
2013-07-25 14:52:00,79.0,61.0,29.97,WNW,291,1.0,5.0,55,0.00,,,0.00,851.000000,,2013-07-25 18:52:00,
2013-07-25 15:03:00,79.0,60.0,29.97,ENE,61,2.0,5.0,53,0.00,,,0.00,826.000000,,2013-07-25 19:03:00,
2013-07-25 15:43:00,80.0,61.0,29.96,ENE,67,0.0,5.0,53,0.00,,,0.00,765.000000,,2013-07-25 19:43:00,
2013-07-25 15:52:00,80.0,61.0,29.96,NE,46,1.0,9.0,53,0.00,,,0.00,749.000000,,2013-07-25 19:52:00,
2013-07-25 16:03:00,79.0,59.0,29.97,West,279,2.0,7.0,50,0.00,,,0.00,724.000000,,2013-07-25 20:03:00,
2013-07-25 16:12:00,79.0,60.0,29.96,West,271,1.0,9.0,53,0.00,,,0.00,714.000000,,2013-07-25 20:12:00,
2013-07-25 16:22:00,79.0,60.0,29.96,West,259,0.0,5.0,52,0.00,,,0.00,696.000000,,2013-07-25 20:22:00,
2013-07-25 16:53:00,80.0,61.0,29.96,ESE,105,0.0,3.0,52,0.00,,,0.00,610.000000,,2013-07-25 20:53:00,
2013-07-25 17:03:00,81.0,62.0,29.96,WNW,299,1.0,7.0,52,0.00,,,0.00,582.000000,,2013-07-25 21:03:00,
2013-07-25 17:44:00,79.0,60.0,29.96,ENE,57,0.0,6.0,52,0.00,,,0.00,473.000000,,2013-07-25 21:44:00,
2013-07-25 17:52:00,79.0,61.0,29.96,NW,305,0.0,6.0,54,0.00,,,0.00,455.000000,,2013-07-25 21:52:00,
2013-07-25 18:32:00,79.0,60.0,29.96,NW,304,0.0,1.0,53,0.00,,,0.00,318.000000,,2013-07-25 22:32:00,
2013-07-25 18:43:00,79.0,62.0,29.97,East,101,0.0,5.0,56,0.00,,,0.00,287.000000,,2013-07-25 22:43:00,
2013-07-25 19:22:00,77.0,60.0,29.98,WNW,297,1.0,6.0,56,0.00,,,0.00,192.000000,,2013-07-25 23:22:00,
2013-07-25 19:43:00,77.0,61.0,29.98,NE,55,0.0,5.0,57,0.00,,,0.00,153.000000,,2013-07-25 23:43:00,
2013-07-25 19:52:00,76.0,62.0,29.99,ENE,68,0.0,3.0,63,0.00,,,0.00,93.000000,,2013-07-25 23:52:00,
2013-07-25 20:43:00,74.0,64.0,29.99,NE,53,0.0,0.0,72,0.00,,,0.00,0.000000,,2013-07-26 00:43:00,
2013-07-25 20:52:00,74.0,65.0,29.99,NE,53,0.0,0.0,73,0.00,,,0.00,0.000000,,2013-07-26 00:52:00,
2013-07-25 22:02:00,72.0,63.0,30.01,ENE,59,0.0,0.0,73,0.00,,,0.00,0.000000,,2013-07-26 02:02:00,
2013-07-25 22:43:00,71.0,63.0,30.01,ENE,61,0.0,1.0,75,0.00,,,0.00,0.000000,,2013-07-26 02:43:00,
2013-07-25 23:02:00,70.0,62.0,30.01,ENE,67,0.0,0.0,76,0.00,,,0.00,0.000000,,2013-07-26 03:02:00,
2013-07-25 23:44:00,69.0,62.0,30.02,ENE,67,0.0,0.0,78,0.00,,,0.00,0.000000,,2013-07-26 03:44:00,